sensor_id;sensor_type;location;lat;lon;timestamp;temperature;humidity
3980;DHT22;2004;52.452;13.120;2023-02-28T00:01:32;0.60;99.90
3980;DHT22;2004;52.452;13.120;2023-02-28T00:09:23;0.60;99.90
3980;DHT22;2004;52.452;13.120;2023-02-28T00:17:15;0.60;99.90
3980;DHT22;2004;52.452;13.120;2023-02-28T00:25:09;0.50;99.90
3980;DHT22;2004;52.452;13.120;2023-02-28T00:32:59;0.50;99.90
3980;DHT22;2004;52.452;13.120;2023-02-28T00:40:50;0.50;99.90
3980;DHT22;2004;52.452;13.120;2023-02-28T00:48:40;0.60;99.90
3980;DHT22;2004;52.452;13.120;2023-02-28T00:56:31;0.60;99.90
3980;DHT22;2004;52.452;13.120;2023-02-28T01:04:22;0.60;99.90
3980;DHT22;2004;52.452;13.120;2023-02-28T01:12:13;0.60;99.90
3980;DHT22;2004;52.452;13.120;2023-02-28T01:20:04;0.60;99.90
3980;DHT22;2004;52.452;13.120;2023-02-28T01:27:55;0.60;99.90
3980;DHT22;2004;52.452;13.120;2023-02-28T01:35:47;0.60;99.90
3980;DHT22;2004;52.452;13.120;2023-02-28T02:07:26;0.60;99.90
3980;DHT22;2004;52.452;13.120;2023-02-28T02:15:38;0.50;99.90
3980;DHT22;2004;52.452;13.120;2023-02-28T02:23:47;0.50;99.90
3980;DHT22;2004;52.452;13.120;2023-02-28T02:31:54;0.50;99.90
3980;DHT22;2004;52.452;13.120;2023-02-28T02:48:12;0.30;99.90
3980;DHT22;2004;52.452;13.120;2023-02-28T02:56:06;0.30;99.90
3980;DHT22;2004;52.452;13.120;2023-02-28T03:04:05;0.20;99.90
3980;DHT22;2004;52.452;13.120;2023-02-28T03:11:57;0.10;99.90
3980;DHT22;2004;52.452;13.120;2023-02-28T03:28:31;-0.10;99.90
3980;DHT22;2004;52.452;13.120;2023-02-28T03:36:27;-0.10;99.90
3980;DHT22;2004;52.452;13.120;2023-02-28T03:44:28;-0.20;99.90
3980;DHT22;2004;52.452;13.120;2023-02-28T03:52:22;-0.30;99.90
3980;DHT22;2004;52.452;13.120;2023-02-28T04:00:27;-0.40;99.90
3980;DHT22;2004;52.452;13.120;2023-02-28T04:08:20;-0.50;99.90
3980;DHT22;2004;52.452;13.120;2023-02-28T04:16:11;-0.50;99.90
3980;DHT22;2004;52.452;13.120;2023-02-28T04:24:04;-0.60;99.90
3980;DHT22;2004;52.452;13.120;2023-02-28T04:31:55;-0.70;99.90
3980;DHT22;2004;52.452;13.120;2023-02-28T04:39:49;-0.70;99.90
3980;DHT22;2004;52.452;13.120;2023-02-28T04:47:40;-0.80;99.90
3980;DHT22;2004;52.452;13.120;2023-02-28T04:55:35;-0.80;99.90
3980;DHT22;2004;52.452;13.120;2023-02-28T05:03:25;-0.90;99.90
3980;DHT22;2004;52.452;13.120;2023-02-28T05:11:21;-1.00;99.90
3980;DHT22;2004;52.452;13.120;2023-02-28T05:19:15;-1.00;99.90
3980;DHT22;2004;52.452;13.120;2023-02-28T05:27:08;-1.10;99.90
3980;DHT22;2004;52.452;13.120;2023-02-28T05:35:06;-1.20;99.90
3980;DHT22;2004;52.452;13.120;2023-02-28T05:43:00;-1.20;99.90
3980;DHT22;2004;52.452;13.120;2023-02-28T05:50:55;-1.30;99.90
3980;DHT22;2004;52.452;13.120;2023-02-28T05:58:50;-1.30;99.90
3980;DHT22;2004;52.452;13.120;2023-02-28T06:06:41;-1.40;99.90
3980;DHT22;2004;52.452;13.120;2023-02-28T06:14:34;-1.40;99.90
3980;DHT22;2004;52.452;13.120;2023-02-28T06:22:25;-1.50;99.90
3980;DHT22;2004;52.452;13.120;2023-02-28T06:30:18;-1.50;99.90
3980;DHT22;2004;52.452;13.120;2023-02-28T06:38:15;-1.50;99.90
3980;DHT22;2004;52.452;13.120;2023-02-28T06:46:11;-1.60;99.90
3980;DHT22;2004;52.452;13.120;2023-02-28T06:54:04;-1.60;99.90
3980;DHT22;2004;52.452;13.120;2023-02-28T07:02:00;-1.60;99.90
3980;DHT22;2004;52.452;13.120;2023-02-28T07:09:52;-1.60;99.90
3980;DHT22;2004;52.452;13.120;2023-02-28T07:17:44;-1.60;99.90
3980;DHT22;2004;52.452;13.120;2023-02-28T07:25:38;-1.60;99.90
3980;DHT22;2004;52.452;13.120;2023-02-28T07:33:29;-1.50;99.90
3980;DHT22;2004;52.452;13.120;2023-02-28T07:41:21;-1.40;99.90
3980;DHT22;2004;52.452;13.120;2023-02-28T07:49:14;-1.30;99.90
3980;DHT22;2004;52.452;13.120;2023-02-28T07:57:06;-1.10;99.90
3980;DHT22;2004;52.452;13.120;2023-02-28T08:04:56;-0.90;99.90
3980;DHT22;2004;52.452;13.120;2023-02-28T08:12:47;-0.70;99.90
3980;DHT22;2004;52.452;13.120;2023-02-28T08:20:38;-0.40;99.90
3980;DHT22;2004;52.452;13.120;2023-02-28T08:28:29;-0.20;99.90
3980;DHT22;2004;52.452;13.120;2023-02-28T08:36:20;0.00;99.90
3980;DHT22;2004;52.452;13.120;2023-02-28T08:44:10;0.30;99.90
3980;DHT22;2004;52.452;13.120;2023-02-28T08:52:01;0.50;99.90
3980;DHT22;2004;52.452;13.120;2023-02-28T08:59:52;0.80;99.90
3980;DHT22;2004;52.452;13.120;2023-02-28T09:07:43;1.10;99.90
3980;DHT22;2004;52.452;13.120;2023-02-28T09:15:34;1.30;99.30
3980;DHT22;2004;52.452;13.120;2023-02-28T09:23:24;1.50;96.50
3980;DHT22;2004;52.452;13.120;2023-02-28T09:31:19;2.10;94.50
3980;DHT22;2004;52.452;13.120;2023-02-28T09:39:13;2.70;91.60
3980;DHT22;2004;52.452;13.120;2023-02-28T09:47:32;3.30;88.30
3980;DHT22;2004;52.452;13.120;2023-02-28T09:55:31;3.60;78.60
3980;DHT22;2004;52.452;13.120;2023-02-28T10:03:32;3.70;75.80
3980;DHT22;2004;52.452;13.120;2023-02-28T10:11:28;3.60;76.50
3980;DHT22;2004;52.452;13.120;2023-02-28T10:27:41;3.40;75.70
3980;DHT22;2004;52.452;13.120;2023-02-28T10:35:32;3.30;74.20
3980;DHT22;2004;52.452;13.120;2023-02-28T10:43:27;3.40;70.80
3980;DHT22;2004;52.452;13.120;2023-02-28T10:51:19;3.40;70.30
3980;DHT22;2004;52.452;13.120;2023-02-28T10:59:28;3.60;70.60
3980;DHT22;2004;52.452;13.120;2023-02-28T11:07:23;3.70;70.90
3980;DHT22;2004;52.452;13.120;2023-02-28T11:15:25;3.80;70.00
3980;DHT22;2004;52.452;13.120;2023-02-28T11:23:17;4.00;68.00
3980;DHT22;2004;52.452;13.120;2023-02-28T11:39:12;4.30;65.50
3980;DHT22;2004;52.452;13.120;2023-02-28T11:55:14;4.30;66.30
3980;DHT22;2004;52.452;13.120;2023-02-28T12:11:51;4.40;65.80
3980;DHT22;2004;52.452;13.120;2023-02-28T12:20:13;4.40;63.80
3980;DHT22;2004;52.452;13.120;2023-02-28T12:28:10;4.40;61.60
3980;DHT22;2004;52.452;13.120;2023-02-28T12:36:09;4.50;63.40
3980;DHT22;2004;52.452;13.120;2023-02-28T12:44:03;4.50;63.10
3980;DHT22;2004;52.452;13.120;2023-02-28T12:51:57;4.50;63.20
3980;DHT22;2004;52.452;13.120;2023-02-28T13:00:35;4.50;64.40
3980;DHT22;2004;52.452;13.120;2023-02-28T13:08:33;4.60;67.40
3980;DHT22;2004;52.452;13.120;2023-02-28T13:16:27;4.70;67.80
3980;DHT22;2004;52.452;13.120;2023-02-28T13:24:38;4.70;65.80
3980;DHT22;2004;52.452;13.120;2023-02-28T13:32:32;4.70;66.00
3980;DHT22;2004;52.452;13.120;2023-02-28T13:40:31;4.70;65.20
3980;DHT22;2004;52.452;13.120;2023-02-28T13:48:28;4.70;62.50
3980;DHT22;2004;52.452;13.120;2023-02-28T13:56:34;4.70;62.10
3980;DHT22;2004;52.452;13.120;2023-02-28T14:04:49;4.70;61.40
3980;DHT22;2004;52.452;13.120;2023-02-28T14:13:03;4.80;63.70
3980;DHT22;2004;52.452;13.120;2023-02-28T14:21:09;4.80;63.20
3980;DHT22;2004;52.452;13.120;2023-02-28T14:29:30;4.80;63.80
3980;DHT22;2004;52.452;13.120;2023-02-28T14:37:32;4.80;61.10
3980;DHT22;2004;52.452;13.120;2023-02-28T14:45:29;4.90;63.90
3980;DHT22;2004;52.452;13.120;2023-02-28T14:53:22;4.80;62.70
3980;DHT22;2004;52.452;13.120;2023-02-28T15:01:19;4.80;61.50
3980;DHT22;2004;52.452;13.120;2023-02-28T15:09:16;4.80;62.80
3980;DHT22;2004;52.452;13.120;2023-02-28T15:17:11;4.90;62.00
3980;DHT22;2004;52.452;13.120;2023-02-28T15:25:05;4.90;60.70
3980;DHT22;2004;52.452;13.120;2023-02-28T15:33:22;4.90;60.00
3980;DHT22;2004;52.452;13.120;2023-02-28T15:41:36;4.80;61.60
3980;DHT22;2004;52.452;13.120;2023-02-28T15:49:59;4.80;60.90
3980;DHT22;2004;52.452;13.120;2023-02-28T15:57:55;4.70;61.40
3980;DHT22;2004;52.452;13.120;2023-02-28T16:14:16;4.60;63.10
3980;DHT22;2004;52.452;13.120;2023-02-28T16:22:09;4.50;63.00
3980;DHT22;2004;52.452;13.120;2023-02-28T16:30:01;4.40;64.60
3980;DHT22;2004;52.452;13.120;2023-02-28T16:37:53;4.30;64.70
3980;DHT22;2004;52.452;13.120;2023-02-28T16:45:44;4.10;64.50
3980;DHT22;2004;52.452;13.120;2023-02-28T16:53:36;4.00;69.70
3980;DHT22;2004;52.452;13.120;2023-02-28T17:01:27;3.90;72.40
3980;DHT22;2004;52.452;13.120;2023-02-28T17:09:23;3.70;69.60
3980;DHT22;2004;52.452;13.120;2023-02-28T17:17:18;3.50;71.70
3980;DHT22;2004;52.452;13.120;2023-02-28T17:25:10;3.30;73.80
3980;DHT22;2004;52.452;13.120;2023-02-28T17:33:01;3.10;74.70
3980;DHT22;2004;52.452;13.120;2023-02-28T17:40:52;2.80;75.50
3980;DHT22;2004;52.452;13.120;2023-02-28T17:48:51;2.70;76.70
3980;DHT22;2004;52.452;13.120;2023-02-28T17:56:42;2.40;77.40
3980;DHT22;2004;52.452;13.120;2023-02-28T18:04:36;2.20;78.10
3980;DHT22;2004;52.452;13.120;2023-02-28T18:12:26;2.00;80.20
3980;DHT22;2004;52.452;13.120;2023-02-28T18:20:18;1.80;80.90
3980;DHT22;2004;52.452;13.120;2023-02-28T18:28:08;1.60;82.20
3980;DHT22;2004;52.452;13.120;2023-02-28T18:35:59;1.40;83.90
3980;DHT22;2004;52.452;13.120;2023-02-28T18:43:49;1.20;84.60
3980;DHT22;2004;52.452;13.120;2023-02-28T18:51:41;1.10;85.70
3980;DHT22;2004;52.452;13.120;2023-02-28T18:59:35;0.90;86.30
3980;DHT22;2004;52.452;13.120;2023-02-28T19:07:26;0.70;87.90
3980;DHT22;2004;52.452;13.120;2023-02-28T19:15:18;0.60;88.50
3980;DHT22;2004;52.452;13.120;2023-02-28T19:23:08;0.60;88.40
3980;DHT22;2004;52.452;13.120;2023-02-28T19:31:02;0.50;89.40
3980;DHT22;2004;52.452;13.120;2023-02-28T19:38:55;0.40;90.90
3980;DHT22;2004;52.452;13.120;2023-02-28T19:46:45;0.40;90.90
3980;DHT22;2004;52.452;13.120;2023-02-28T19:54:36;0.30;91.60
3980;DHT22;2004;52.452;13.120;2023-02-28T20:02:26;0.20;92.20
3980;DHT22;2004;52.452;13.120;2023-02-28T20:10:17;0.10;93.00
3980;DHT22;2004;52.452;13.120;2023-02-28T20:18:07;0.10;94.00
3980;DHT22;2004;52.452;13.120;2023-02-28T20:26:01;0.00;95.50
3980;DHT22;2004;52.452;13.120;2023-02-28T20:33:52;-0.20;97.50
3980;DHT22;2004;52.452;13.120;2023-02-28T20:41:45;-0.20;99.70
3980;DHT22;2004;52.452;13.120;2023-02-28T20:49:37;-0.30;99.90
3980;DHT22;2004;52.452;13.120;2023-02-28T20:57:28;-0.30;99.90
3980;DHT22;2004;52.452;13.120;2023-02-28T21:05:21;-0.40;99.90
3980;DHT22;2004;52.452;13.120;2023-02-28T21:13:11;-0.50;99.90
3980;DHT22;2004;52.452;13.120;2023-02-28T21:21:04;-0.60;99.90
3980;DHT22;2004;52.452;13.120;2023-02-28T21:29:00;-0.60;99.90
3980;DHT22;2004;52.452;13.120;2023-02-28T21:36:51;-0.70;99.90
3980;DHT22;2004;52.452;13.120;2023-02-28T21:44:43;-0.80;99.90
3980;DHT22;2004;52.452;13.120;2023-02-28T21:52:35;-0.80;99.90
3980;DHT22;2004;52.452;13.120;2023-02-28T22:00:26;-0.90;99.90
3980;DHT22;2004;52.452;13.120;2023-02-28T22:08:18;-0.90;99.90
3980;DHT22;2004;52.452;13.120;2023-02-28T22:16:12;-1.00;99.90
3980;DHT22;2004;52.452;13.120;2023-02-28T22:24:03;-1.00;99.90
3980;DHT22;2004;52.452;13.120;2023-02-28T22:31:55;-1.10;99.90
3980;DHT22;2004;52.452;13.120;2023-02-28T22:39:49;-1.10;99.90
3980;DHT22;2004;52.452;13.120;2023-02-28T22:47:39;-1.20;99.90
3980;DHT22;2004;52.452;13.120;2023-02-28T22:55:31;-1.20;99.90
3980;DHT22;2004;52.452;13.120;2023-02-28T23:03:25;-1.30;99.90
3980;DHT22;2004;52.452;13.120;2023-02-28T23:11:19;-1.40;99.90
3980;DHT22;2004;52.452;13.120;2023-02-28T23:19:13;-1.40;99.90
3980;DHT22;2004;52.452;13.120;2023-02-28T23:27:05;-1.50;99.90
3980;DHT22;2004;52.452;13.120;2023-02-28T23:34:58;-1.60;99.90
3980;DHT22;2004;52.452;13.120;2023-02-28T23:42:50;-1.70;99.90
3980;DHT22;2004;52.452;13.120;2023-02-28T23:50:42;-1.70;99.90
3980;DHT22;2004;52.452;13.120;2023-02-28T23:58:34;-1.80;99.90
